Time;durP1;ratioP1;P1;durP2;ratioP2;P2;SDS_P1;SDS_P2;PMS_P1;PMS_P2;Temp;Humidity;BMP_temperature;BMP_pressure;BME280_temperature;BME280_humidity;BME280_pressure;Samples;Min_cycle;Max_cycle;Signal;HPM_P1;HPM_P2
2021/01/03 14:43:43;;;;;;;6.08;4.10;;;;;;;6.26;65.95;95974.55;1836813;76;22882;-82
2021/01/03 14:46:22;;;;;;;5.37;3.80;;;;;;;6.11;66.11;95982.16;1822679;77;21197;-81
2021/01/03 14:49:26;;;;;;;5.53;3.75;;;;;;;6.00;66.18;95985.86;1821053;77;21268;-81
2021/01/03 14:52:27;;;;;;;5.17;3.67;;;;;;;5.94;66.34;95985.23;1692409;83;21271;-80
2021/01/03 14:55:11;;;;;;;4.58;4.17;;;;;;;5.84;66.58;95982.46;1668654;84;21531;-81
2021/01/03 14:57:38;;;;;;;5.35;4.50;;;;;;;5.71;66.77;95985.55;1665508;84;21119;-81
2021/01/03 15:00:08;;;;;;;5.08;4.45;;;;;;;5.63;66.99;95988.91;1641252;84;21152;-80
2021/01/03 15:03:00;;;;;;;5.95;4.60;;;;;;;5.57;67.22;95991.34;1667213;84;21323;-80
2021/01/03 15:05:39;;;;;;;5.35;4.55;;;;;;;5.50;67.50;95983.90;1683723;84;21153;-79
2021/01/03 15:08:37;;;;;;;5.83;4.75;;;;;;;5.45;67.60;95988.73;1692837;84;21525;-79
2021/01/03 15:11:03;;;;;;;7.17;5.35;;;;;;;5.42;67.84;95980.84;1689953;84;21515;-80
2021/01/03 15:13:31;;;;;;;6.40;4.72;;;;;;;5.38;68.02;95986.00;1678192;84;21173;-79
2021/01/03 15:16:09;;;;;;;5.47;4.92;;;;;;;5.33;68.13;95974.86;1691915;84;21255;-79
2021/01/03 15:18:44;;;;;;;7.67;4.67;;;;;;;5.30;68.33;95977.77;1661075;84;21161;-80
2021/01/03 15:21:10;;;;;;;6.33;5.00;;;;;;;5.18;68.52;95969.20;1685722;84;21129;-80
2021/01/03 15:23:46;;;;;;;7.37;4.90;;;;;;;5.13;68.48;95968.39;1656459;84;21137;-80
2021/01/03 15:26:31;;;;;;;7.22;4.60;;;;;;;5.04;68.71;95970.16;1683154;84;21454;-81
2021/01/03 15:29:07;;;;;;;8.63;5.03;;;;;;;5.04;68.76;95970.16;1675644;84;21872;-80
2021/01/03 15:31:47;;;;;;;6.30;5.08;;;;;;;5.11;68.37;95964.69;1660446;86;21189;-80
2021/01/03 15:34:18;;;;;;;10.32;6.53;;;;;;;5.23;68.62;95964.41;1662145;84;21099;-81
2021/01/03 15:36:45;;;;;;;7.83;5.97;;;;;;;5.30;68.37;95964.08;1646835;84;21472;-80
2021/01/03 15:39:11;;;;;;;9.63;6.62;;;;;;;5.33;68.27;95984.36;1690760;84;21131;-81
2021/01/03 15:41:52;;;;;;;8.08;5.58;;;;;;;5.31;68.32;95984.52;1680708;84;21156;-80
2021/01/03 15:44:39;;;;;;;17.23;10.35;;;;;;;5.30;68.45;95989.84;1679243;84;21130;-80
2021/01/03 15:47:37;;;;;;;11.12;7.35;;;;;;;5.24;68.39;95989.19;1674996;84;21136;-80
2021/01/03 15:50:06;;;;;;;9.38;6.35;;;;;;;5.18;68.75;95998.82;1624315;84;21162;-80
2021/01/03 15:52:38;;;;;;;8.98;5.67;;;;;;;5.06;68.69;96004.28;1632422;87;21173;-80
2021/01/03 15:55:06;;;;;;;8.50;5.33;;;;;;;4.97;68.80;96011.64;1683088;83;21407;-79
2021/01/03 15:57:35;;;;;;;9.88;5.37;;;;;;;4.88;69.17;96011.75;1697050;84;21260;-79
2021/01/03 16:00:04;;;;;;;8.20;4.83;;;;;;;4.77;69.25;96012.38;1715033;83;21241;-79
2021/01/03 16:02:30;;;;;;;7.40;5.30;;;;;;;4.73;69.33;96018.80;1662473;84;21167;-80
2021/01/03 16:04:57;;;;;;;8.45;5.37;;;;;;;4.72;69.51;96019.77;1671045;84;21408;-80
2021/01/03 16:07:23;;;;;;;8.08;6.00;;;;;;;4.68;69.55;96024.06;1667414;84;21149;-80
2021/01/03 16:09:49;;;;;;;8.75;6.25;;;;;;;4.60;69.50;96031.76;1686041;84;21153;-80
2021/01/03 16:12:15;;;;;;;7.40;4.78;;;;;;;4.54;69.68;96030.58;1669271;84;21140;-81
2021/01/03 16:14:42;;;;;;;7.75;5.65;;;;;;;4.50;69.76;96028.00;1672882;84;21445;-80
2021/01/03 16:17:08;;;;;;;7.15;5.53;;;;;;;4.46;69.92;96031.36;1682298;84;21109;-80
2021/01/03 16:19:44;;;;;;;6.40;4.97;;;;;;;4.43;70.02;96029.58;1672042;84;21149;-81
2021/01/03 16:23:06;;;;;;;6.90;4.60;;;;;;;4.40;70.10;96029.89;1681472;84;21370;-81
2021/01/03 16:25:55;;;;;;;5.62;4.20;;;;;;;4.38;70.04;96021.01;1684347;84;21286;-79
2021/01/03 16:28:51;;;;;;;6.42;4.40;;;;;;;4.39;70.05;96029.53;1673907;84;21283;-80
2021/01/03 16:31:34;;;;;;;5.05;4.55;;;;;;;4.38;70.16;96027.92;1663396;84;21173;-80
2021/01/03 16:34:27;;;;;;;4.92;4.42;;;;;;;4.35;70.16;96027.75;1679171;84;21378;-80
2021/01/03 16:37:11;;;;;;;6.92;4.53;;;;;;;4.36;70.25;96032.41;1641178;84;21367;-80
2021/01/03 16:39:58;;;;;;;4.65;4.22;;;;;;;4.35;70.29;96034.66;1678761;84;21387;-80
2021/01/03 16:42:57;;;;;;;5.20;4.00;;;;;;;4.32;70.36;96038.83;1679179;84;21371;-79
2021/01/03 16:45:34;;;;;;;5.85;4.60;;;;;;;4.28;70.49;96042.66;1683181;84;21379;-80
2021/01/03 16:48:38;;;;;;;5.80;4.97;;;;;;;4.17;70.52;96051.42;1690597;84;21137;-80
2021/01/03 16:51:12;;;;;;;7.22;4.10;;;;;;;4.12;70.75;96057.02;1685396;83;21105;-80
2021/01/03 16:53:49;;;;;;;6.85;3.85;;;;;;;4.07;70.86;96056.67;1689097;83;21129;-79
2021/01/03 16:56:37;;;;;;;6.28;4.28;;;;;;;4.04;70.98;96055.66;1686599;83;21101;-80
2021/01/03 16:59:21;;;;;;;7.20;4.60;;;;;;;4.02;71.05;96057.58;1691503;83;21113;-80
2021/01/03 17:01:57;;;;;;;6.33;4.53;;;;;;;4.01;71.25;96057.25;1680263;83;21172;-80
2021/01/03 17:04:23;;;;;;;4.85;4.40;;;;;;;3.98;71.38;96056.27;1700017;83;21125;-80
2021/01/03 17:07:04;;;;;;;5.62;4.00;;;;;;;3.95;71.42;96054.00;1691228;83;21355;-80
2021/01/03 17:09:44;;;;;;;5.50;4.87;;;;;;;3.91;71.60;96058.63;1687900;83;21138;-80
2021/01/03 17:13:06;;;;;;;6.37;5.00;;;;;;;3.90;71.64;96054.45;1630275;86;21106;-80
2021/01/03 17:16:01;;;;;;;6.33;4.15;;;;;;;3.90;71.70;96060.87;1707453;83;21129;-80
2021/01/03 17:18:54;;;;;;;5.08;4.10;;;;;;;3.95;71.74;96064.28;1685149;83;21102;-80
2021/01/03 17:21:57;;;;;;;7.08;4.70;;;;;;;3.99;71.76;96065.59;1696218;83;21268;-80
2021/01/03 17:25:00;;;;;;;6.30;5.37;;;;;;;4.02;71.80;96065.77;1705907;83;21940;-81
2021/01/03 17:27:57;;;;;;;9.30;6.47;;;;;;;4.03;71.93;96065.61;1702589;83;21122;-80
2021/01/03 17:31:06;;;;;;;13.58;8.55;;;;;;;4.02;71.88;96062.72;1696082;83;21279;-80
2021/01/03 17:33:50;;;;;;;10.98;8.35;;;;;;;4.01;71.95;96058.53;1698797;83;21101;-80
2021/01/03 17:36:55;;;;;;;23.38;13.78;;;;;;;4.01;72.03;96057.25;1697069;83;21116;-80
2021/01/03 17:39:32;;;;;;;26.37;17.52;;;;;;;4.01;72.15;96062.39;1669810;85;21236;-80
2021/01/03 17:42:03;;;;;;;19.40;11.83;;;;;;;4.04;72.43;96058.23;1715065;83;21101;-80
2021/01/03 17:44:50;;;;;;;19.35;11.33;;;;;;;4.07;72.57;96060.53;1662664;85;21352;-79
2021/01/03 17:47:49;;;;;;;9.35;6.22;;;;;;;4.14;72.55;96056.87;1683408;85;21976;-79
2021/01/03 17:50:29;;;;;;;7.78;5.80;;;;;;;4.18;72.78;96064.61;1653125;84;21145;-79
2021/01/03 17:53:10;;;;;;;10.70;6.75;;;;;;;4.17;72.73;96062.52;1714376;82;21088;-79
2021/01/03 17:55:38;;;;;;;7.35;5.40;;;;;;;4.20;72.90;96065.26;1703925;82;21146;-81
2021/01/03 17:58:05;;;;;;;11.93;8.43;;;;;;;4.24;73.08;96067.08;1683412;84;21147;-82
2021/01/03 18:00:31;;;;;;;10.00;7.00;;;;;;;4.26;72.87;96065.16;1712566;83;21261;-81
2021/01/03 18:03:02;;;;;;;15.23;10.15;;;;;;;4.29;73.11;96066.14;1697126;83;21127;-81
2021/01/03 18:05:29;;;;;;;14.87;9.90;;;;;;;4.38;72.91;96060.87;1716144;82;21136;-80
2021/01/03 18:07:55;;;;;;;19.80;11.78;;;;;;;4.51;72.96;96066.91;1753560;81;21225;-80
2021/01/03 18:10:21;;;;;;;15.32;10.75;;;;;;;4.58;72.84;96064.56;1711237;82;21144;-81
2021/01/03 18:12:48;;;;;;;19.77;12.65;;;;;;;4.62;72.88;96069.72;1734133;82;21126;-80
2021/01/03 18:15:15;;;;;;;17.20;12.82;;;;;;;4.66;72.92;96069.73;1718948;81;21134;-81
2021/01/03 18:17:41;;;;;;;22.07;15.75;;;;;;;4.70;72.81;96068.47;1709639;82;21257;-81
2021/01/03 18:20:08;;;;;;;18.98;13.35;;;;;;;4.75;72.88;96074.79;1732161;81;21110;-81
2021/01/03 18:22:35;;;;;;;16.35;11.10;;;;;;;4.75;72.69;96068.36;1736958;81;21384;-81
2021/01/03 18:25:01;;;;;;;12.10;8.63;;;;;;;4.83;72.52;96066.28;1749286;81;21137;-81
2021/01/03 18:27:27;;;;;;;9.43;6.45;;;;;;;4.93;72.11;96058.46;1738595;82;21110;-80
2021/01/03 18:29:54;;;;;;;13.72;8.43;;;;;;;5.04;71.90;96067.18;1730807;81;21392;-81
2021/01/03 18:32:21;;;;;;;15.53;8.68;;;;;;;5.16;71.67;96063.85;1734386;82;21309;-80
2021/01/03 18:34:51;;;;;;;39.35;17.15;;;;;;;5.30;71.42;96064.55;1749137;81;21268;-81
2021/01/03 18:37:17;;;;;;;33.98;16.25;;;;;;;5.39;71.14;96069.58;1724200;82;21561;-81
2021/01/03 18:39:44;;;;;;;33.20;16.65;;;;;;;5.47;70.94;96070.06;1733827;81;21241;-82
2021/01/03 18:42:10;;;;;;;41.73;20.50;;;;;;;5.55;70.61;96075.73;1737900;81;21369;-81
2021/01/03 18:44:36;;;;;;;81.85;51.95;;;;;;;5.62;70.36;96076.22;1705842;82;21419;-81
2021/01/03 18:47:03;;;;;;;220.50;109.85;;;;;;;5.62;70.28;96089.59;1708745;82;21241;-81
2021/01/03 18:49:29;;;;;;;223.30;108.70;;;;;;;5.51;69.99;96086.02;1728638;81;21400;-81
2021/01/03 18:51:55;;;;;;;160.15;96.08;;;;;;;5.44;69.98;96089.71;1754326;81;21241;-81
2021/01/03 18:54:22;;;;;;;159.22;95.07;;;;;;;5.37;70.01;96095.98;1746740;81;21118;-81
2021/01/03 18:56:48;;;;;;;140.40;84.62;;;;;;;5.33;69.94;96090.80;1731784;81;21137;-81
2021/01/03 18:59:17;;;;;;;133.70;82.10;;;;;;;5.27;70.08;96088.85;1719738;82;21131;-81
2021/01/03 19:01:45;;;;;;;120.05;73.12;;;;;;;5.25;70.36;96095.94;1744305;82;21170;-81
2021/01/03 19:04:13;;;;;;;83.67;51.42;;;;;;;5.23;70.39;96090.62;1734996;82;21218;-81
2021/01/03 19:06:44;;;;;;;54.48;30.10;;;;;;;5.15;70.43;96091.37;1729455;81;21126;-81
2021/01/03 19:09:15;;;;;;;17.85;10.85;;;;;;;5.10;70.58;96089.27;1695242;82;21163;-81
2021/01/03 19:11:41;;;;;;;17.10;11.73;;;;;;;5.16;70.62;96091.70;1736751;82;21495;-81
2021/01/03 19:14:10;;;;;;;24.45;13.65;;;;;;;5.31;70.66;96087.57;1743431;82;21383;-81
2021/01/03 19:16:40;;;;;;;15.95;11.28;;;;;;;5.45;70.65;96093.09;1736164;82;21257;-81
2021/01/03 19:19:08;;;;;;;26.97;15.35;;;;;;;5.52;70.35;96093.59;1740833;81;21125;-81
2021/01/03 19:21:36;;;;;;;11.25;6.83;;;;;;;5.59;70.18;96106.19;1727197;81;21305;-80
2021/01/03 19:24:02;;;;;;;18.75;11.43;;;;;;;5.65;69.97;96107.31;1740523;81;21487;-80
2021/01/03 19:26:29;;;;;;;8.55;6.03;;;;;;;5.71;69.87;96113.95;1738073;81;21121;-80
2021/01/03 19:28:55;;;;;;;9.40;6.10;;;;;;;5.76;69.75;96116.53;1718895;82;21114;-81
2021/01/03 19:31:28;;;;;;;8.15;5.70;;;;;;;5.80;69.87;96119.11;1737142;82;21095;-81
2021/01/03 19:33:55;;;;;;;7.03;5.50;;;;;;;5.81;69.67;96115.08;1726162;82;21236;-81
2021/01/03 19:36:25;;;;;;;6.17;5.25;;;;;;;5.81;69.64;96113.80;1739290;81;21079;-82
2021/01/03 19:38:51;;;;;;;7.12;5.65;;;;;;;5.80;69.54;96118.62;1731375;81;21095;-81
2021/01/03 19:41:26;;;;;;;7.90;5.47;;;;;;;5.80;69.47;96120.40;1735121;82;21115;-81
2021/01/03 19:43:54;;;;;;;7.58;5.62;;;;;;;5.82;69.57;96128.30;1689746;82;21087;-81
2021/01/03 19:46:22;;;;;;;121.85;47.95;;;;;;;5.83;69.26;96131.20;1717190;82;21122;-81
2021/01/03 19:48:49;;;;;;;379.52;136.03;;;;;;;5.89;69.45;96131.06;1718194;82;21237;-81
2021/01/03 19:51:15;;;;;;;211.00;85.70;;;;;;;5.90;69.44;96136.09;1750304;81;21117;-81
2021/01/03 19:53:42;;;;;;;287.63;112.65;;;;;;;5.92;69.34;96139.80;1760938;80;21114;-81
2021/01/03 19:56:08;;;;;;;97.17;41.23;;;;;;;5.89;69.32;96144.77;1760348;80;21096;-81
2021/01/03 19:58:34;;;;;;;62.08;30.30;;;;;;;5.85;68.92;96142.16;1752159;81;21252;-81
2021/01/03 20:01:03;;;;;;;42.98;23.27;;;;;;;5.81;69.61;96135.70;1756445;80;21244;-82
2021/01/03 20:03:29;;;;;;;206.82;78.52;;;;;;;5.78;69.57;96140.38;1736738;81;21133;-81
2021/01/03 20:05:56;;;;;;;76.75;42.60;;;;;;;5.75;69.67;96141.51;1766759;81;21344;-81
2021/01/03 20:08:21;;;;;;;70.03;41.58;;;;;;;5.65;69.23;96145.98;1698674;82;21119;-81
2021/01/03 20:10:48;;;;;;;72.97;41.88;;;;;;;5.58;69.25;96151.45;1749771;80;21145;-81
2021/01/03 20:13:14;;;;;;;66.37;39.78;;;;;;;5.52;69.30;96148.19;1737246;82;21473;-81
2021/01/03 20:15:40;;;;;;;68.33;42.10;;;;;;;5.45;69.43;96163.95;1707946;82;21123;-81
2021/01/03 20:18:06;;;;;;;63.13;40.00;;;;;;;5.39;69.41;96158.95;1759960;81;21463;-81
2021/01/03 20:20:36;;;;;;;76.65;43.73;;;;;;;5.38;69.78;96154.77;1746778;81;21336;-82
2021/01/03 20:23:01;;;;;;;65.62;38.75;;;;;;;5.38;69.63;96152.19;1732649;81;21161;-81
2021/01/03 20:25:27;;;;;;;72.78;41.58;;;;;;;5.37;69.95;96160.40;1698457;82;21264;-81
2021/01/03 20:27:53;;;;;;;75.22;46.05;;;;;;;5.36;69.86;96158.75;1705157;82;21245;-81
2021/01/03 20:30:19;;;;;;;64.85;36.45;;;;;;;5.34;69.79;96156.81;1753830;81;21507;-81
2021/01/03 20:32:45;;;;;;;69.00;39.65;;;;;;;5.32;70.09;96156.17;1745742;81;21244;-81
2021/01/03 20:35:11;;;;;;;64.47;38.67;;;;;;;5.27;69.93;96164.05;1677130;85;21384;-81
2021/01/03 20:37:40;;;;;;;55.70;33.10;;;;;;;5.20;69.95;96161.25;1713536;84;21097;-81
2021/01/03 20:40:07;;;;;;;24.82;13.50;;;;;;;5.13;70.22;96168.80;1753607;80;21091;-81
2021/01/03 20:42:33;;;;;;;16.12;10.65;;;;;;;5.07;70.58;96169.42;1741583;80;21280;-81
2021/01/03 20:44:59;;;;;;;11.85;7.35;;;;;;;5.07;70.76;96173.77;1750381;81;21133;-81
2021/01/03 20:47:25;;;;;;;37.65;20.50;;;;;;;5.07;70.86;96178.91;1715013;84;21106;-82
2021/01/03 20:49:52;;;;;;;24.87;12.85;;;;;;;5.08;70.76;96172.80;1716154;82;21134;-81
2021/01/03 20:52:19;;;;;;;16.95;9.70;;;;;;;5.08;70.91;96180.05;1702629;82;21090;-81
2021/01/03 20:54:46;;;;;;;41.85;15.55;;;;;;;5.11;71.02;96184.08;1725730;82;21463;-81
2021/01/03 20:57:12;;;;;;;15.20;7.35;;;;;;;5.09;71.11;96184.23;1736991;82;21238;-81
2021/01/03 20:59:38;;;;;;;8.38;5.85;;;;;;;5.06;71.21;96182.45;1752414;81;22045;-81
2021/01/03 21:02:06;;;;;;;6.65;4.92;;;;;;;5.07;71.38;96186.64;1713379;81;21245;-80
2021/01/03 21:04:32;;;;;;;6.75;5.03;;;;;;;5.04;71.47;96184.34;1740838;81;21091;-81
2021/01/03 21:07:03;;;;;;;7.03;5.25;;;;;;;5.02;71.52;96177.25;1751999;81;21130;-81
2021/01/03 21:09:33;;;;;;;6.67;4.62;;;;;;;5.01;71.64;96179.50;1747742;82;21229;-82
2021/01/03 21:12:14;;;;;;;5.45;4.65;;;;;;;5.02;71.50;96179.83;1720102;82;21143;-81
2021/01/03 21:14:41;;;;;;;5.87;4.83;;;;;;;5.07;71.57;96179.72;1724840;82;21269;-81
2021/01/03 21:17:07;;;;;;;5.55;4.85;;;;;;;5.09;71.69;96172.65;1721214;82;21362;-81
2021/01/03 21:19:33;;;;;;;6.15;4.37;;;;;;;5.09;71.73;96178.28;1719159;82;21313;-81
2021/01/03 21:22:01;;;;;;;5.37;4.80;;;;;;;5.05;71.73;96179.07;1718660;82;21241;-81
2021/01/03 21:24:28;;;;;;;7.00;5.42;;;;;;;5.00;71.64;96193.34;1734471;81;21123;-81
2021/01/03 21:27:30;;;;;;;7.22;5.10;;;;;;;4.93;71.71;96190.58;1736336;82;21295;-81
2021/01/03 21:30:10;;;;;;;8.30;5.40;;;;;;;4.91;71.85;96191.69;1742757;82;21139;-81
2021/01/03 21:33:17;;;;;;;8.90;5.22;;;;;;;4.86;71.98;96188.26;1726730;82;21337;-81
2021/01/03 21:35:49;;;;;;;6.22;5.15;;;;;;;4.81;72.06;96196.44;1717753;82;21139;-81
2021/01/03 21:38:42;;;;;;;6.60;4.85;;;;;;;4.81;72.03;96200.30;1818369;77;23325;-81
2021/01/03 21:41:47;;;;;;;7.72;5.35;;;;;;;4.79;72.11;96198.36;1811422;78;21923;-82
2021/01/03 21:44:53;;;;;;;7.20;5.33;;;;;;;4.79;72.19;96195.79;1806260;78;21511;-81
2021/01/03 21:47:46;;;;;;;6.15;5.05;;;;;;;4.77;72.31;96206.72;1807810;78;21121;-81
2021/01/03 21:50:34;;;;;;;7.65;6.10;;;;;;;4.73;72.45;96198.97;1807995;78;21125;-81
2021/01/03 21:53:24;;;;;;;6.70;5.40;;;;;;;4.69;72.56;96207.93;1774021;79;21394;-81
2021/01/03 21:56:08;;;;;;;6.30;5.35;;;;;;;4.67;72.62;96208.56;1781992;79;21324;-81
2021/01/03 21:59:01;;;;;;;8.03;5.15;;;;;;;4.64;72.67;96210.63;1775223;79;21114;-81
2021/01/03 22:02:03;;;;;;;6.62;5.05;;;;;;;4.66;72.66;96210.80;1741328;81;21241;-81
2021/01/03 22:05:13;;;;;;;5.97;4.95;;;;;;;4.69;72.54;96218.22;1742901;81;21086;-81
2021/01/03 22:08:11;;;;;;;6.30;4.80;;;;;;;4.72;72.58;96219.72;1714372;82;21131;-80
2021/01/03 22:11:05;;;;;;;7.45;5.33;;;;;;;4.72;72.72;96213.28;1695430;82;21121;-80
2021/01/03 22:14:04;;;;;;;6.45;5.40;;;;;;;4.72;72.85;96217.14;1686880;84;21173;-79
2021/01/03 22:16:56;;;;;;;7.92;5.50;;;;;;;4.72;72.68;96216.66;1701303;82;21365;-80
2021/01/03 22:19:40;;;;;;;6.75;4.58;;;;;;;4.75;72.64;96217.64;1711511;82;21150;-79
2021/01/03 22:22:21;;;;;;;6.85;5.17;;;;;;;4.78;72.70;96213.48;1696926;83;21140;-79
2021/01/03 22:25:23;;;;;;;9.13;5.10;;;;;;;4.78;72.73;96214.77;1698972;83;21160;-79
2021/01/03 22:27:58;;;;;;;5.97;4.97;;;;;;;4.81;72.70;96218.32;1677022;83;21144;-80
2021/01/03 22:30:40;;;;;;;6.78;4.55;;;;;;;4.86;72.65;96220.92;1698218;83;21418;-80
2021/01/03 22:33:23;;;;;;;5.40;4.65;;;;;;;4.89;72.61;96225.80;1671209;84;21164;-80
2021/01/03 22:35:54;;;;;;;5.17;4.50;;;;;;;4.94;72.36;96222.28;1686453;84;21180;-79
2021/01/03 22:38:38;;;;;;;5.20;4.25;;;;;;;4.99;72.42;96221.34;1697314;84;21823;-79
2021/01/03 22:41:15;;;;;;;5.58;4.45;;;;;;;5.02;72.09;96219.75;1692428;83;21152;-80
2021/01/03 22:44:10;;;;;;;5.50;4.00;;;;;;;5.06;71.93;96216.73;1703990;83;21152;-80
2021/01/03 22:47:00;;;;;;;5.70;4.25;;;;;;;5.15;71.75;96215.00;1677176;84;21389;-80
2021/01/03 22:49:54;;;;;;;6.25;5.58;;;;;;;5.19;71.66;96205.20;1705470;84;21238;-80
2021/01/03 22:52:51;;;;;;;5.08;4.15;;;;;;;5.22;71.49;96201.05;1692656;84;21151;-80
2021/01/03 22:55:51;;;;;;;7.55;6.15;;;;;;;5.28;71.18;96199.95;1666934;83;21366;-79
2021/01/03 22:58:50;;;;;;;10.85;8.80;;;;;;;5.35;70.97;96198.84;1700444;83;22039;-79
2021/01/03 23:01:29;;;;;;;6.17;5.62;;;;;;;5.39;71.00;96197.12;1695592;83;21483;-79
2021/01/03 23:04:18;;;;;;;6.20;5.58;;;;;;;5.41;70.82;96199.06;1652048;85;21171;-79
2021/01/03 23:06:52;;;;;;;6.53;5.25;;;;;;;5.39;70.91;96199.70;1690342;81;21161;-79
2021/01/03 23:09:30;;;;;;;4.70;4.22;;;;;;;5.39;70.96;96197.12;1713934;83;21112;-80
2021/01/03 23:12:17;;;;;;;5.08;4.03;;;;;;;5.36;71.15;96193.53;1734194;81;21200;-80
2021/01/03 23:14:47;;;;;;;5.00;3.90;;;;;;;5.30;71.35;96191.59;1743424;81;21114;-80
2021/01/03 23:17:22;;;;;;;5.53;4.53;;;;;;;5.21;71.58;96182.22;1740371;81;21255;-79
2021/01/03 23:20:04;;;;;;;4.53;3.80;;;;;;;5.18;71.72;96186.84;1703434;82;21125;-80
2021/01/03 23:22:34;;;;;;;5.60;4.67;;;;;;;5.13;71.83;96181.67;1729739;81;21828;-80
2021/01/03 23:25:05;;;;;;;4.62;3.83;;;;;;;5.11;71.94;96180.22;1716781;82;21133;-80
2021/01/03 23:27:35;;;;;;;5.00;4.00;;;;;;;5.12;71.95;96179.25;1723435;81;21164;-79
2021/01/03 23:30:06;;;;;;;5.53;4.03;;;;;;;5.12;72.07;96176.69;1672616;84;21162;-80
2021/01/03 23:32:33;;;;;;;5.37;4.40;;;;;;;5.10;72.07;96178.12;1711430;82;21283;-80
2021/01/03 23:35:03;;;;;;;6.10;4.05;;;;;;;5.09;72.23;96171.36;1735997;81;21120;-81
2021/01/03 23:38:06;;;;;;;5.47;4.15;;;;;;;5.06;72.30;96171.67;1707815;81;21374;-79
2021/01/03 23:40:43;;;;;;;4.53;4.03;;;;;;;5.00;72.53;96164.53;1723564;82;21116;-79
2021/01/03 23:43:17;;;;;;;5.40;4.20;;;;;;;4.94;72.48;96165.64;1667982;82;22031;-80
2021/01/03 23:45:45;;;;;;;5.12;4.03;;;;;;;4.89;72.77;96167.86;1703430;83;21238;-79
2021/01/03 23:48:58;;;;;;;4.83;3.92;;;;;;;4.86;72.66;96170.72;1707935;82;21141;-79
2021/01/03 23:51:51;;;;;;;4.37;3.45;;;;;;;4.84;72.79;96158.00;1646348;86;21141;-80
2021/01/03 23:54:37;;;;;;;4.25;3.85;;;;;;;4.97;72.05;96152.45;1645979;86;21145;-79
2021/01/03 23:57:31;;;;;;;5.95;4.40;;;;;;;5.05;72.23;96148.65;1593408;88;21268;-79
